Airport Name : Broome Intl

Other Name : Broome Intl

ICAO : YBRM

IATA : BME

FAA :

Latitude : -17.944722

Longitude : 122.231667

Country : Australia

Local Date and Time : 22 Jul 2024 09:04

 

TAF (Terminal Aerodrome Forecast)

TAF YBRM 212302Z 2200/2300 08014KT CAVOK FM220700 29010KT CAVOK FM221200 VRB03KT CAVOK

 

METAR (METeorological Aerodrome Report)

YBRM 220030Z AUTO 09009KT 9999 // NCD 22/03 Q1019 RF00.0/000.0

YBRM 220000Z AUTO 09007KT 9999 // NCD 20/04 Q1019 RF00.0/000.0

YBRM 212330Z AUTO 11005KT 9999 // NCD 17/03 Q1019 RF00.0/000.0

YBRM 212300Z AUTO 06003KT 9999 // NCD 14/05 Q1018 RF00.0/000.0

YBRM 212230Z AUTO 05005KT 9999 // NCD 12/03 Q1018 RF00.0/000.0

YBRM 212200Z AUTO 03004KT 9999 // NCD 13/03 Q1018 RF00.0/000.0

YBRM 212130Z AUTO 10005KT 9999 // NCD 15/03 Q1018 RF00.0/000.0